Nyk Meteor — 3ENA9 — position and weather

sailwx.info

Track history (hours):
 
Tides and Currents Weather Stations Pressure Air Temp Water Temp Dewpoint Dewpoint Depression Visibility Wind Speed Wind Dir Waves Ship Positions

Nyk Meteor

Last reported at 2017-Nov-20 00:25 UTC. Time now 2017-Nov-20 02:07 UTC.
Position N 33°45' W 118°12'.

Length 294 m; draft 11.9 m.

Type: Cargo ship. MMSI: 354212000.

Date/timePositionNaut miles runAvg speedWind from/ knotsBaromVisibWave heightAir tempDewpointWater temp
2017-Nov-20 00:25N 33°45' W 118°12'0 0.0
2017-Nov-19 21:55N 33°45' W 118°12'0 0.0
2017-Nov-19 21:25N 33°45' W 118°12'0 0.0
2017-Nov-19 20:25N 33°45' W 118°12'0 0.0
2017-Nov-19 19:55N 33°45' W 118°12'0 0.0
2017-Nov-19 19:25N 33°45' W 118°12'0 0.0
2017-Nov-19 17:01N 33°45' W 118°12'0 0.1
2017-Nov-19 16:55N 33°45' W 118°12'0 0.0
2017-Nov-19 16:13N 33°45' W 118°12'0 0.0
2017-Nov-19 15:55N 33°45' W 118°12'0 0.0
2017-Nov-19 13:30N 33°45' W 118°12'0 0.7
2017-Nov-19 13:00N 33°45' W 118°12'5 5.5
2017-Nov-19 12:01N 33°39' W 118°10'0 3.5
2017-Nov-19 11:58N 33°39' W 118°10'4 7.1
2017-Nov-19 11:27N 33°35' W 118°10'3 7.3
2017-Nov-19 11:00N 33°32' W 118°08'3 6.7
2017-Nov-19 10:31N 33°29' W 118°07'4 7.9
2017-Nov-19 10:00N 33°26' W 118°05'4 7.7
2017-Nov-19 09:30N 33°22' W 118°04'5 9.3
2017-Nov-19 09:00N 33°17' W 118°02'611.5
2017-Nov-19 08:30N 33°12' W 118°00'611.3
2017-Nov-19 08:00N 33°07' W 117°59'611.3
2017-Nov-19 07:30N 33°01' W 117°57'611.2
2017-Nov-19 07:00N 32°56' W 117°55'611.0
2017-Nov-19 06:30N 32°50' W 117°53'612.5
2017-Nov-19 06:00N 32°44' W 117°52'613.0
2017-Nov-19 05:31N 32°38' W 117°51'714.5
2017-Nov-19 05:01N 32°31' W 117°48'816.8
2017-Nov-19 04:31N 32°23' W 117°45'917.6
2017-Nov-19 04:01N 32°14' W 117°42'917.4
2017-Nov-19 03:30N 32°06' W 117°39'3616.8
2017-Nov-19 01:23N 31°32' W 117°26'1215.0
2017-Nov-19 00:33N 31°20' W 117°22'1 4.0
2017-Nov-19 00:23N 31°20' W 117°22'410.3
2017-Nov-19 00:00N 31°16' W 117°20'815.7
2017-Nov-18 23:29N 31°08' W 117°17'815.9
2017-Nov-18 23:00N 31°01' W 117°14'816.5
2017-Nov-18 22:30N 30°53' W 117°11'1216.7
2017-Nov-18 21:48N 30°42' W 117°07'717.0
2017-Nov-18 21:24N 30°35' W 117°05'1316.9
2017-Nov-18 20:37N 30°23' W 117°01'919.0
2017-Nov-18 20:08N 30°14' W 116°58'1919.4
2017-Nov-18 19:09N 29°56' W 116°51'319.7
2017-Nov-18 19:00N 29°53' W 116°51'1019.7
2017-Nov-18 18:29N 29°43' W 116°46'  
Track history (hours):
 
Tides and Currents Weather Stations Pressure Air Temp Water Temp Dewpoint Dewpoint Depression Visibility Wind Speed Wind Dir Waves Ship Positions

Nyk Meteor

Last reported at 2017-Nov-20 00:25 UTC. Time now 2017-Nov-20 02:07 UTC.
Position N 33°45' W 118°12'.

Length 294 m; draft 11.9 m.

Type: Cargo ship. MMSI: 354212000.

Date/timePositionNaut miles runAvg speedWind from/ knotsBaromVisibWave heightAir tempDewpointWater temp
2017-Nov-20 00:25N 33°45' W 118°12'0 0.0
2017-Nov-19 21:55N 33°45' W 118°12'0 0.0
2017-Nov-19 21:25N 33°45' W 118°12'0 0.0
2017-Nov-19 20:25N 33°45' W 118°12'0 0.0
2017-Nov-19 19:55N 33°45' W 118°12'0 0.0
2017-Nov-19 19:25N 33°45' W 118°12'0 0.0
2017-Nov-19 17:01N 33°45' W 118°12'0 0.1
2017-Nov-19 16:55N 33°45' W 118°12'0 0.0
2017-Nov-19 16:13N 33°45' W 118°12'0 0.0
2017-Nov-19 15:55N 33°45' W 118°12'0 0.0
2017-Nov-19 13:30N 33°45' W 118°12'0 0.7
2017-Nov-19 13:00N 33°45' W 118°12'5 5.5
2017-Nov-19 12:01N 33°39' W 118°10'0 3.5
2017-Nov-19 11:58N 33°39' W 118°10'4 7.1
2017-Nov-19 11:27N 33°35' W 118°10'3 7.3
2017-Nov-19 11:00N 33°32' W 118°08'3 6.7
2017-Nov-19 10:31N 33°29' W 118°07'4 7.9
2017-Nov-19 10:00N 33°26' W 118°05'4 7.7
2017-Nov-19 09:30N 33°22' W 118°04'5 9.3
2017-Nov-19 09:00N 33°17' W 118°02'611.5
2017-Nov-19 08:30N 33°12' W 118°00'611.3
2017-Nov-19 08:00N 33°07' W 117°59'611.3
2017-Nov-19 07:30N 33°01' W 117°57'611.2
2017-Nov-19 07:00N 32°56' W 117°55'611.0
2017-Nov-19 06:30N 32°50' W 117°53'612.5
2017-Nov-19 06:00N 32°44' W 117°52'613.0
2017-Nov-19 05:31N 32°38' W 117°51'714.5
2017-Nov-19 05:01N 32°31' W 117°48'816.8
2017-Nov-19 04:31N 32°23' W 117°45'917.6
2017-Nov-19 04:01N 32°14' W 117°42'917.4
2017-Nov-19 03:30N 32°06' W 117°39'3616.8
2017-Nov-19 01:23N 31°32' W 117°26'1215.0
2017-Nov-19 00:33N 31°20' W 117°22'1 4.0
2017-Nov-19 00:23N 31°20' W 117°22'410.3
2017-Nov-19 00:00N 31°16' W 117°20'815.7
2017-Nov-18 23:29N 31°08' W 117°17'815.9
2017-Nov-18 23:00N 31°01' W 117°14'816.5
2017-Nov-18 22:30N 30°53' W 117°11'1216.7
2017-Nov-18 21:48N 30°42' W 117°07'717.0
2017-Nov-18 21:24N 30°35' W 117°05'1316.9
2017-Nov-18 20:37N 30°23' W 117°01'919.0
2017-Nov-18 20:08N 30°14' W 116°58'1919.4
2017-Nov-18 19:09N 29°56' W 116°51'319.7
2017-Nov-18 19:00N 29°53' W 116°51'1019.7
2017-Nov-18 18:29N 29°43' W 116°46'  

Dump ship's entire track history